Time;durP1;ratioP1;P1;durP2;ratioP2;P2;SDS_P1;SDS_P2;PMS_P1;PMS_P2;Temp;Humidity;BMP_temperature;BMP_pressure;BME280_temperature;BME280_humidity;BME280_pressure;Samples;Min_cycle;Max_cycle;Signal;HPM_P1;HPM_P2
2021/06/21 00:07:31;;;;;;;6.83;6.23;;;;;;;21.43;60.66;98988.77;532501;1087;117005;-64
2021/06/21 00:17:37;;;;;;;8.10;7.37;;;;;;;21.36;61.25;98979.83;527914;1089;117263;-64
2021/06/21 00:27:45;;;;;;;7.67;6.97;;;;;;;21.27;61.37;98981.77;522140;1088;116644;-63
2021/06/21 00:37:52;;;;;;;9.73;6.58;;;;;;;21.13;61.95;98964.71;532415;1087;116415;-64
2021/06/21 00:47:59;;;;;;;8.35;7.55;;;;;;;21.00;62.53;98944.83;530706;1089;116701;-63
2021/06/21 00:58:05;;;;;;;7.60;6.97;;;;;;;20.92;62.78;98934.22;530224;1088;115760;-64
2021/06/21 01:08:12;;;;;;;8.27;7.57;;;;;;;20.84;63.33;98936.99;532545;1088;116603;-64
2021/06/21 01:18:24;;;;;;;10.63;8.93;;;;;;;20.77;63.97;98915.48;523781;1090;116594;-63
2021/06/21 01:28:54;;;;;;;10.57;8.20;;;;;;;20.78;64.81;98905.66;532507;1087;116632;-64
2021/06/21 01:39:02;;;;;;;11.00;7.80;;;;;;;20.84;65.05;98895.11;522558;1087;116296;-64
2021/06/21 01:49:13;;;;;;;10.80;9.28;;;;;;;20.88;65.24;98903.59;532546;1087;116490;-64
2021/06/21 01:59:21;;;;;;;8.70;8.00;;;;;;;20.84;65.33;98903.13;525142;1090;116629;-63
2021/06/21 02:09:28;;;;;;;10.43;8.80;;;;;;;20.84;65.35;98902.31;531875;1085;116674;-64
2021/06/21 02:19:36;;;;;;;9.70;7.23;;;;;;;20.86;65.66;98882.41;532537;1087;116026;-64
2021/06/21 02:29:44;;;;;;;8.57;7.63;;;;;;;20.91;65.68;98878.39;530544;1086;115982;-63
2021/06/21 02:39:51;;;;;;;10.33;7.90;;;;;;;20.99;65.44;98889.80;532605;1087;116064;-63
2021/06/21 02:49:58;;;;;;;7.33;6.63;;;;;;;21.30;65.09;98887.10;532532;1088;116011;-64
2021/06/21 03:00:06;;;;;;;8.80;6.93;;;;;;;22.80;63.82;98875.89;531820;1087;116486;-64
2021/06/21 03:10:15;;;;;;;11.15;7.08;;;;;;;24.23;60.92;98875.42;531076;1088;116707;-63
2021/06/21 03:20:23;;;;;;;8.90;5.43;;;;;;;24.55;59.50;98878.31;526860;1085;116049;-64
2021/06/21 03:30:30;;;;;;;7.07;5.23;;;;;;;26.50;55.21;98869.45;531880;1088;116098;-64
2021/06/21 03:40:36;;;;;;;11.40;5.57;;;;;;;25.00;55.94;98883.86;532627;1087;116380;-65
2021/06/21 03:50:43;;;;;;;7.60;5.00;;;;;;;25.06;57.24;98889.44;531839;1087;116484;-64
2021/06/21 04:00:50;;;;;;;6.47;4.20;;;;;;;31.40;49.88;98897.77;532575;1087;116540;-65
2021/06/21 04:10:56;;;;;;;6.28;4.25;;;;;;;35.19;42.15;98899.41;532565;1087;116233;-64
2021/06/21 04:21:03;;;;;;;7.88;4.00;;;;;;;37.46;37.40;98893.17;528002;1087;116366;-65
2021/06/21 04:31:09;;;;;;;6.38;3.55;;;;;;;38.77;32.26;98904.56;522788;1087;116445;-65
2021/06/21 04:41:16;;;;;;;8.90;3.90;;;;;;;40.86;31.25;98912.50;532543;1087;116165;-66
2021/06/21 04:51:23;;;;;;;7.40;3.70;;;;;;;43.80;28.02;98927.89;531861;1088;116368;-64
2021/06/21 05:01:29;;;;;;;11.00;3.93;;;;;;;45.25;24.74;98899.55;523146;1087;116379;-64
2021/06/21 05:11:36;;;;;;;4.20;3.15;;;;;;;46.52;22.91;98899.51;532589;1087;116414;-64
2021/06/21 05:21:43;;;;;;;6.00;3.10;;;;;;;47.03;21.98;98893.23;518850;1087;115991;-64
2021/06/21 05:31:50;;;;;;;5.63;4.58;;;;;;;47.32;20.50;98881.97;521947;1087;115868;-64
2021/06/21 05:41:56;;;;;;;5.15;4.33;;;;;;;48.59;19.75;98873.25;530547;1088;116616;-65
2021/06/21 05:52:03;;;;;;;7.10;3.80;;;;;;;48.99;18.39;98869.08;532490;1087;117020;-65
2021/06/21 06:02:09;;;;;;;6.15;2.98;;;;;;;51.19;17.49;98873.64;532439;1087;117043;-65
2021/06/21 06:12:17;;;;;;;4.65;3.40;;;;;;;52.92;15.51;98861.89;531711;1087;116395;-65
2021/06/21 06:22:23;;;;;;;5.85;4.00;;;;;;;53.12;15.08;98852.27;532496;1087;116839;-65
2021/06/21 06:32:30;;;;;;;4.68;4.15;;;;;;;53.13;15.09;98856.66;532482;1087;115796;-65
2021/06/21 06:42:36;;;;;;;7.63;5.13;;;;;;;52.53;14.24;98837.55;531698;1087;115895;-65
2021/06/21 06:52:44;;;;;;;5.08;4.20;;;;;;;53.60;13.49;98846.02;532515;1087;116699;-64
2021/06/21 07:02:51;;;;;;;7.98;5.85;;;;;;;53.92;13.31;98842.22;531711;1087;116996;-65
2021/06/21 07:12:58;;;;;;;14.30;8.23;;;;;;;55.35;12.11;98856.44;532581;1085;117301;-65
2021/06/21 07:23:04;;;;;;;9.33;8.53;;;;;;;53.58;12.08;98850.44;532547;1087;116561;-65
2021/06/21 07:33:11;;;;;;;13.43;7.05;;;;;;;51.72;13.38;98844.30;531655;1088;116502;-69
2021/06/21 07:43:18;;;;;;;7.85;4.53;;;;;;;53.20;12.43;98853.81;532448;1087;116949;-69
2021/06/21 07:53:25;;;;;;;10.53;3.18;;;;;;;43.74;15.94;98838.84;530692;1087;116497;-69
2021/06/21 08:03:32;;;;;;;5.35;2.20;;;;;;;38.20;21.08;98831.55;531719;1087;117922;-69
2021/06/21 08:13:38;;;;;;;9.95;2.40;;;;;;;36.56;23.72;98837.06;532556;1087;116714;-69
2021/06/21 08:23:45;;;;;;;12.65;2.50;;;;;;;35.35;25.59;98837.41;531760;1087;116437;-68
2021/06/21 08:33:53;;;;;;;7.70;2.75;;;;;;;33.64;27.73;98856.72;532541;1087;116257;-70
2021/06/21 08:44:01;;;;;;;11.95;3.40;;;;;;;33.63;28.71;98852.36;520388;1088;116324;-70
2021/06/21 08:54:08;;;;;;;13.77;3.33;;;;;;;33.11;29.42;98838.61;530766;1089;116341;-69
2021/06/21 09:04:14;;;;;;;11.77;2.47;;;;;;;32.70;29.80;98831.85;532590;1089;117087;-61
2021/06/21 09:14:36;;;;;;;6.93;2.67;;;;;;;32.30;30.29;98833.22;532425;1087;116748;-60
2021/06/21 09:24:42;;;;;;;5.55;2.40;;;;;;;32.40;29.52;98829.77;532570;1086;116675;-61
2021/06/21 09:34:49;;;;;;;9.53;2.37;;;;;;;31.94;30.38;98822.89;526386;1087;115927;-60
2021/06/21 09:44:57;;;;;;;6.33;2.13;;;;;;;31.92;30.11;98818.79;531889;1086;116406;-60
2021/06/21 09:55:13;;;;;;;6.07;2.47;;;;;;;32.03;30.26;98801.51;532574;1089;116037;-60
2021/06/21 10:05:23;;;;;;;8.17;3.07;;;;;;;31.77;30.24;98792.33;532587;1089;116626;-61
2021/06/21 10:15:30;;;;;;;10.80;2.70;;;;;;;31.84;30.41;98798.38;531829;1087;116748;-61
2021/06/21 10:25:37;;;;;;;7.57;2.33;;;;;;;31.52;30.44;98789.13;532569;1087;116038;-61
2021/06/21 10:35:43;;;;;;;11.43;2.80;;;;;;;31.47;30.46;98788.25;531831;1088;116231;-61
2021/06/21 10:45:48;;;;;;;;;;;;;;;31.43;30.73;98777.92;531973;1088;116932;-61
2021/06/21 10:55:56;;;;;;;12.45;3.10;;;;;;;31.32;31.23;98770.77;514974;1088;101972;-59
2021/06/21 11:06:04;;;;;;;8.17;2.30;;;;;;;31.11;30.90;98756.12;521397;1089;116589;-61
2021/06/21 11:16:26;;;;;;;14.57;3.00;;;;;;;31.00;31.54;98734.35;532542;1087;116322;-60
2021/06/21 11:27:02;;;;;;;8.93;2.50;;;;;;;31.13;31.53;98741.25;532579;1089;117444;-60
2021/06/21 11:37:32;;;;;;;10.20;2.63;;;;;;;31.18;31.15;98737.77;524766;1088;116409;-61
2021/06/21 11:47:41;;;;;;;6.57;2.30;;;;;;;31.12;30.01;98734.19;514123;1088;117040;-59
2021/06/21 11:57:50;;;;;;;10.50;2.45;;;;;;;31.12;30.02;98714.41;529992;1088;116159;-62
2021/06/21 12:07:57;;;;;;;9.47;2.27;;;;;;;31.14;29.39;98710.35;532552;1088;116987;-62
2021/06/21 12:18:04;;;;;;;7.13;2.03;;;;;;;31.09;29.70;98707.60;526057;1089;116715;-62
2021/06/21 12:28:16;;;;;;;9.73;3.27;;;;;;;31.13;29.02;98694.36;532512;1089;116241;-62
2021/06/21 12:38:23;;;;;;;10.20;2.07;;;;;;;31.32;29.20;98667.72;532521;1090;116391;-62
2021/06/21 12:48:30;;;;;;;7.00;2.15;;;;;;;31.34;29.06;98670.16;531797;1089;116748;-62
2021/06/21 12:58:37;;;;;;;11.95;2.98;;;;;;;31.45;28.85;98680.01;530860;1088;116873;-62
2021/06/21 13:08:44;;;;;;;8.13;2.40;;;;;;;31.55;28.76;98668.44;519798;1089;116305;-62
2021/06/21 13:18:52;;;;;;;5.68;1.80;;;;;;;31.61;28.84;98653.83;527011;1088;115989;-62
2021/06/21 13:29:00;;;;;;;8.03;1.90;;;;;;;31.72;28.80;98636.53;532452;1087;115747;-62
2021/06/21 13:39:09;;;;;;;14.13;4.03;;;;;;;31.63;30.47;98631.88;531728;1087;116701;-63
2021/06/21 13:49:15;;;;;;;7.03;2.37;;;;;;;31.68;30.88;98630.01;526286;1087;116408;-62
2021/06/21 13:59:25;;;;;;;12.37;3.80;;;;;;;31.46;31.25;98643.70;519607;1087;117004;-63
2021/06/21 14:09:31;;;;;;;12.68;2.80;;;;;;;31.41;31.32;98649.91;531686;1087;116847;-65
2021/06/21 14:19:38;;;;;;;8.90;2.57;;;;;;;31.64;31.05;98647.06;532519;1086;116839;-65
2021/06/21 14:29:45;;;;;;;9.13;2.37;;;;;;;31.47;30.91;98642.63;531858;1087;116423;-64
2021/06/21 14:39:52;;;;;;;6.03;2.63;;;;;;;31.46;31.23;98640.99;527213;1086;115627;-65
2021/06/21 14:50:15;;;;;;;9.55;2.68;;;;;;;31.47;30.79;98653.47;531682;1088;115937;-64
2021/06/21 15:00:33;;;;;;;5.63;2.40;;;;;;;31.49;30.27;98654.03;531859;1089;116395;-65
2021/06/21 15:10:42;;;;;;;6.93;2.50;;;;;;;31.57;30.47;98641.88;532554;1088;116343;-65
2021/06/21 15:20:49;;;;;;;11.83;3.67;;;;;;;31.65;30.52;98638.68;531855;1087;116192;-64
2021/06/21 15:30:54;;;;;;;;;;;;;;;31.49;30.62;98632.33;528318;1087;116502;-65
2021/06/21 15:41:01;;;;;;;8.97;2.93;;;;;;;31.41;30.44;98632.80;532842;1087;102893;-65
2021/06/21 15:51:07;;;;;;;;;;;;;;;31.31;30.28;98636.26;531881;1088;116293;-65
2021/06/21 16:01:14;;;;;;;8.08;2.43;;;;;;;31.15;29.77;98646.92;532832;1087;102149;-65
2021/06/21 16:11:21;;;;;;;5.43;2.87;;;;;;;31.06;30.25;98661.21;532567;1087;116458;-65
2021/06/21 16:21:28;;;;;;;13.68;2.68;;;;;;;31.00;29.92;98650.33;530976;1089;116337;-65
2021/06/21 16:31:34;;;;;;;8.15;2.68;;;;;;;30.87;30.16;98637.17;532547;1090;116359;-65
2021/06/21 16:41:41;;;;;;;4.20;2.20;;;;;;;30.70;30.51;98631.85;531798;1087;116991;-65
2021/06/21 16:51:48;;;;;;;9.25;2.35;;;;;;;30.53;30.38;98640.86;530470;1088;115962;-64
2021/06/21 17:01:54;;;;;;;8.63;2.53;;;;;;;30.20;30.71;98635.34;532601;1088;116764;-64
2021/06/21 17:12:01;;;;;;;7.38;2.25;;;;;;;29.95;30.94;98656.59;531781;1087;116442;-65
2021/06/21 17:22:08;;;;;;;8.78;2.50;;;;;;;29.65;30.78;98647.78;532538;1087;116574;-65
2021/06/21 17:32:14;;;;;;;6.67;2.30;;;;;;;29.36;31.83;98650.56;532529;1087;116018;-64
2021/06/21 17:42:23;;;;;;;3.37;2.50;;;;;;;29.06;31.90;98649.80;531865;1087;116744;-65
2021/06/21 17:52:30;;;;;;;7.47;2.47;;;;;;;28.78;32.61;98651.41;522928;1087;116388;-65
2021/06/21 18:02:39;;;;;;;8.25;2.00;;;;;;;28.53;33.44;98657.96;497593;1087;20002097;-65
2021/06/21 18:12:46;;;;;;;8.47;2.93;;;;;;;28.28;34.00;98660.14;532401;1087;116624;-66
2021/06/21 18:22:53;;;;;;;5.43;2.13;;;;;;;27.99;34.31;98671.64;532434;1087;116175;-65
2021/06/21 18:33:01;;;;;;;6.43;2.55;;;;;;;27.73;35.53;98678.32;531664;1087;116500;-66
2021/06/21 18:43:08;;;;;;;7.60;2.73;;;;;;;27.46;37.40;98684.13;532394;1088;116692;-65
2021/06/21 18:53:16;;;;;;;9.88;3.28;;;;;;;27.15;38.80;98700.34;532376;1086;116201;-66
2021/06/21 19:03:24;;;;;;;6.53;2.80;;;;;;;26.86;39.92;98714.36;531696;1088;116250;-65
2021/06/21 19:13:31;;;;;;;7.40;2.77;;;;;;;26.55;41.04;98716.17;532490;1087;116316;-64
2021/06/21 19:23:38;;;;;;;5.17;3.33;;;;;;;26.28;42.15;98713.78;528062;1087;116265;-65
2021/06/21 19:33:49;;;;;;;6.03;2.80;;;;;;;26.04;43.19;98726.19;516026;1088;115930;-63
2021/06/21 19:43:56;;;;;;;7.20;4.13;;;;;;;25.82;43.67;98734.64;532335;1089;116409;-63
2021/06/21 19:54:03;;;;;;;8.20;3.70;;;;;;;25.62;44.68;98729.43;526487;1087;115937;-62
2021/06/21 20:04:10;;;;;;;9.53;4.10;;;;;;;25.38;44.78;98726.46;514817;1087;116269;-62
2021/06/21 20:14:16;;;;;;;6.63;3.67;;;;;;;25.09;45.53;98722.50;514783;1087;116545;-64
2021/06/21 20:24:23;;;;;;;8.50;3.40;;;;;;;24.83;46.54;98718.91;514030;1087;116152;-64
2021/06/21 20:34:41;;;;;;;8.33;3.03;;;;;;;24.59;47.52;98716.69;506957;1087;10001231;-62
2021/06/21 20:44:48;;;;;;;4.70;3.40;;;;;;;24.38;47.58;98728.52;513730;1088;116902;-61
2021/06/21 20:54:55;;;;;;;7.65;3.90;;;;;;;24.18;48.35;98725.84;532373;1087;116363;-64
2021/06/21 21:05:01;;;;;;;6.60;4.20;;;;;;;24.00;49.05;98735.34;532203;1087;115942;-66
2021/06/21 21:15:11;;;;;;;4.87;3.33;;;;;;;23.77;49.92;98723.18;524172;1087;116801;-64
2021/06/21 21:25:21;;;;;;;5.77;3.93;;;;;;;23.52;50.68;98722.95;518613;1087;116083;-66
2021/06/21 21:35:29;;;;;;;7.60;3.83;;;;;;;23.34;51.41;98721.70;526787;1087;116556;-66
2021/06/21 21:45:36;;;;;;;5.37;3.80;;;;;;;23.17;52.30;98720.38;531602;1087;116972;-64
2021/06/21 21:55:44;;;;;;;5.73;3.53;;;;;;;23.04;52.58;98710.48;532420;1089;116817;-64
2021/06/21 22:05:51;;;;;;;6.60;3.83;;;;;;;22.94;53.15;98721.55;527632;1087;116197;-65
2021/06/21 22:16:00;;;;;;;6.20;3.65;;;;;;;22.82;53.57;98718.63;526309;1087;116063;-63
2021/06/21 22:26:07;;;;;;;6.07;3.90;;;;;;;22.63;54.22;98725.55;532478;1087;116580;-65
2021/06/21 22:36:13;;;;;;;5.63;4.17;;;;;;;22.46;54.83;98733.04;522688;1087;10001053;-65
2021/06/21 22:46:20;;;;;;;5.47;3.50;;;;;;;22.26;55.49;98723.84;525707;1088;116808;-63
2021/06/21 22:56:29;;;;;;;6.63;4.63;;;;;;;22.05;55.89;98721.27;525079;1087;116778;-65
2021/06/21 23:06:38;;;;;;;13.30;4.70;;;;;;;21.86;56.54;98715.56;515861;1087;116093;-64
2021/06/21 23:16:45;;;;;;;10.27;5.53;;;;;;;21.74;57.22;98711.77;514202;1087;116211;-60
2021/06/21 23:26:52;;;;;;;6.67;4.23;;;;;;;21.56;57.37;98719.19;529295;1087;117415;-59
2021/06/21 23:37:03;;;;;;;6.40;4.60;;;;;;;21.44;57.88;98735.90;532525;1085;116440;-59
2021/06/21 23:47:11;;;;;;;6.70;4.73;;;;;;;21.31;58.42;98739.28;524178;1089;116190;-59
2021/06/21 23:57:18;;;;;;;8.13;4.60;;;;;;;21.19;58.65;98749.61;527962;1087;116463;-60
